Time;durP1;ratioP1;P1;durP2;ratioP2;P2;SDS_P1;SDS_P2;PMS_P1;PMS_P2;Temp;Humidity;BMP_temperature;BMP_pressure;BME280_temperature;BME280_humidity;BME280_pressure;Samples;Min_cycle;Max_cycle;Signal;HPM_P1;HPM_P2
2023/10/22 00:01:06;;;;;;;11.77;11.47;;;13.60;99.90;;;;;;5097899;28;20454;-80
2023/10/22 00:03:34;;;;;;;12.30;11.83;;;13.60;99.90;;;;;;5107509;28;20464;-80
2023/10/22 00:06:03;;;;;;;12.07;11.57;;;13.60;90.10;;;;;;5095623;28;20454;-80
2023/10/22 00:08:31;;;;;;;12.80;12.40;;;13.70;87.00;;;;;;5098838;28;20466;-80
2023/10/22 00:10:59;;;;;;;12.17;11.90;;;13.60;98.70;;;;;;5098265;28;20604;-80
2023/10/22 00:13:27;;;;;;;12.00;11.60;;;13.60;99.90;;;;;;5093476;28;20477;-81
2023/10/22 00:15:57;;;;;;;12.07;11.67;;;13.60;56.00;;;;;;5096187;28;20481;-81
2023/10/22 00:18:25;;;;;;;11.73;11.37;;;13.60;87.90;;;;;;5099447;28;20477;-81
2023/10/22 00:20:54;;;;;;;11.97;11.67;;;13.70;77.10;;;;;;5097697;28;20456;-81
2023/10/22 00:23:22;;;;;;;12.30;12.00;;;13.60;66.20;;;;;;5100767;28;20560;-82
2023/10/22 00:25:50;;;;;;;12.40;12.00;;;13.50;78.20;;;;;;5097402;28;20545;-82
2023/10/22 00:28:18;;;;;;;12.47;12.17;;;13.50;99.90;;;;;;5094461;28;20535;-81
2023/10/22 00:30:48;;;;;;;11.93;11.50;;;13.50;99.90;;;;;;5100422;28;20446;-81
2023/10/22 00:33:17;;;;;;;11.97;11.63;;;13.50;76.80;;;;;;5098341;28;20472;-81
2023/10/22 00:35:55;;;;;;;12.47;11.97;;;13.50;55.70;;;;;;5099700;27;20482;-81
2023/10/22 00:38:23;;;;;;;12.30;12.00;;;13.50;55.70;;;;;;5097683;28;20506;-80
2023/10/22 00:40:51;;;;;;;12.30;12.00;;;13.40;43.30;;;;;;5097453;28;20457;-81
2023/10/22 00:43:19;;;;;;;12.70;12.30;;;13.40;55.40;;;;;;5096931;28;20442;-80
2023/10/22 00:45:48;;;;;;;11.73;11.43;;;13.40;52.00;;;;;;5097183;28;20453;-81
2023/10/22 00:48:19;;;;;;;11.67;11.37;;;13.40;56.30;;;;;;5098795;28;20547;-81
2023/10/22 00:50:47;;;;;;;11.77;11.37;;;13.40;75.40;;;;;;5098463;28;20462;-81
2023/10/22 00:53:17;;;;;;;12.00;11.60;;;13.40;95.50;;;;;;5091864;28;20461;-80
2023/10/22 00:55:47;;;;;;;11.63;11.33;;;13.40;58.10;;;;;;5095338;28;20477;-81
2023/10/22 00:58:17;;;;;;;11.60;11.30;;;13.40;60.50;;;;;;5096434;28;20459;-81
2023/10/22 01:00:46;;;;;;;11.20;10.90;;;13.40;59.20;;;;;;5098007;28;20461;-81
2023/10/22 01:03:16;;;;;;;11.47;11.07;;;13.30;77.50;;;;;;5096589;28;20515;-79
2023/10/22 01:05:46;;;;;;;11.37;10.90;;;13.30;99.90;;;;;;5091764;28;20537;-81
2023/10/22 01:08:14;;;;;;;10.83;10.60;;;13.30;99.90;;;;;;5092662;28;21009;-80
2023/10/22 01:10:42;;;;;;;10.30;10.00;;;13.30;99.90;;;;;;5093808;28;20840;-79
2023/10/22 01:13:10;;;;;;;11.57;11.27;;;13.30;99.90;;;;;;5094786;28;20457;-80
2023/10/22 01:15:38;;;;;;;10.10;9.80;;;13.20;99.90;;;;;;5091244;28;21425;-80
2023/10/22 01:18:07;;;;;;;10.07;9.87;;;13.30;99.90;;;;;;5096892;28;20530;-80
2023/10/22 01:20:35;;;;;;;10.77;10.47;;;13.20;99.90;;;;;;5096301;28;20442;-79
2023/10/22 01:23:04;;;;;;;10.93;10.63;;;13.20;99.90;;;;;;5092885;28;20607;-80
2023/10/22 01:25:35;;;;;;;10.60;10.27;;;13.20;99.90;;;;;;5091255;28;20481;-80
2023/10/22 01:28:03;;;;;;;10.73;10.33;;;13.10;99.90;;;;;;5093982;28;20453;-80
2023/10/22 01:30:31;;;;;;;10.40;10.10;;;13.20;99.90;;;;;;5094446;28;20458;-81
2023/10/22 01:32:59;;;;;;;10.87;10.57;;;13.20;99.90;;;;;;5092287;28;20461;-79
2023/10/22 01:35:28;;;;;;;10.00;9.70;;;13.20;99.90;;;;;;5094651;28;20472;-80
2023/10/22 01:37:56;;;;;;;10.23;10.03;;;13.20;99.90;;;;;;5095468;28;20453;-80
2023/10/22 01:40:24;;;;;;;11.13;10.73;;;13.20;99.90;;;;;;5095762;28;20483;-80
2023/10/22 01:42:54;;;;;;;10.50;10.10;;;13.20;99.90;;;;;;5094270;28;20455;-80
2023/10/22 01:45:22;;;;;;;10.80;10.50;;;13.10;99.90;;;;;;5090992;28;20474;-80
2023/10/22 01:47:50;;;;;;;10.50;10.30;;;13.00;99.90;;;;;;5094231;28;20462;-80
2023/10/22 01:50:19;;;;;;;10.60;10.20;;;13.00;99.90;;;;;;5095365;28;20457;-80
2023/10/22 01:52:47;;;;;;;11.50;11.23;;;13.00;99.90;;;;;;5094831;28;20441;-81
2023/10/22 01:55:15;;;;;;;10.93;10.63;;;13.00;99.90;;;;;;5092104;28;20500;-80
2023/10/22 01:57:44;;;;;;;11.30;10.90;;;13.00;99.90;;;;;;5091605;28;20469;-80
2023/10/22 02:00:14;;;;;;;11.30;10.93;;;13.00;99.90;;;;;;5092896;28;20473;-80
2023/10/22 02:02:42;;;;;;;11.53;11.03;;;13.00;99.90;;;;;;5094430;28;21745;-81
2023/10/22 02:05:11;;;;;;;11.33;11.03;;;13.00;99.90;;;;;;5096953;28;20476;-80
2023/10/22 02:07:39;;;;;;;11.07;10.77;;;13.00;99.90;;;;;;5100664;28;20540;-81
2023/10/22 02:10:09;;;;;;;11.30;11.00;;;13.00;99.90;;;;;;5098571;28;20441;-81
2023/10/22 02:12:37;;;;;;;11.10;10.80;;;13.00;99.90;;;;;;5098414;28;20934;-80
2023/10/22 02:15:09;;;;;;;11.83;11.53;;;12.90;99.90;;;;;;5097575;28;20572;-80
2023/10/22 02:17:38;;;;;;;11.10;10.90;;;12.90;99.90;;;;;;5094760;28;20814;-80
2023/10/22 02:20:08;;;;;;;11.50;11.20;;;13.00;99.90;;;;;;5094701;28;20484;-81
2023/10/22 02:22:38;;;;;;;11.37;11.00;;;12.90;99.90;;;;;;5097540;28;20462;-78
2023/10/22 02:25:07;;;;;;;11.60;11.10;;;12.90;99.90;;;;;;5097141;28;20955;-80
2023/10/22 02:27:36;;;;;;;11.60;11.30;;;12.90;99.90;;;;;;5097767;28;20462;-80
2023/10/22 02:30:05;;;;;;;11.70;11.40;;;12.80;99.90;;;;;;5094330;28;20885;-80
2023/10/22 02:32:33;;;;;;;12.00;11.63;;;12.90;99.90;;;;;;5097052;28;20445;-80
2023/10/22 02:35:03;;;;;;;11.60;11.30;;;12.90;99.90;;;;;;5091569;28;20473;-79
2023/10/22 02:37:31;;;;;;;11.83;11.43;;;12.90;99.90;;;;;;5101870;28;20472;-80
2023/10/22 02:39:59;;;;;;;11.57;11.07;;;12.80;99.90;;;;;;5096656;28;20549;-80
2023/10/22 02:42:28;;;;;;;11.20;10.80;;;12.90;99.90;;;;;;5089135;28;20449;-80
2023/10/22 02:44:56;;;;;;;11.87;11.37;;;12.90;99.90;;;;;;5097732;28;20476;-80
2023/10/22 02:47:24;;;;;;;11.00;10.70;;;12.90;99.90;;;;;;5100155;28;20953;-80
2023/10/22 02:49:54;;;;;;;11.57;11.17;;;12.90;99.90;;;;;;5097716;28;20493;-79
2023/10/22 02:52:23;;;;;;;11.50;10.90;;;12.80;99.90;;;;;;5097353;28;20499;-79
2023/10/22 02:54:53;;;;;;;11.97;11.43;;;12.80;99.90;;;;;;5095398;28;20469;-80
2023/10/22 02:57:21;;;;;;;11.23;10.93;;;12.80;99.90;;;;;;5098923;28;20473;-80
2023/10/22 02:59:49;;;;;;;11.23;10.83;;;12.80;99.90;;;;;;5094200;28;20497;-80
2023/10/22 03:02:19;;;;;;;10.90;10.70;;;12.90;99.90;;;;;;5094676;28;20636;-80
2023/10/22 03:04:47;;;;;;;11.20;10.80;;;12.80;99.90;;;;;;5098739;28;21027;-79
2023/10/22 03:07:15;;;;;;;11.20;10.67;;;12.80;99.90;;;;;;5094007;28;20454;-80
2023/10/22 03:09:45;;;;;;;11.33;11.03;;;12.60;99.90;;;;;;5096785;28;20446;-80
2023/10/22 03:12:13;;;;;;;11.10;10.70;;;12.70;99.90;;;;;;5095294;28;20559;-79
2023/10/22 03:14:41;;;;;;;11.13;10.83;;;12.80;99.90;;;;;;5092309;28;20484;-78
2023/10/22 03:17:09;;;;;;;10.90;10.60;;;12.80;99.90;;;;;;5095000;28;20634;-80
2023/10/22 03:19:38;;;;;;;11.07;10.77;;;12.70;99.90;;;;;;5096768;28;20447;-80
2023/10/22 03:22:08;;;;;;;10.83;10.53;;;12.70;99.90;;;;;;5094064;28;20465;-80
2023/10/22 03:24:37;;;;;;;11.43;11.13;;;12.70;99.90;;;;;;5095555;28;20461;-80
2023/10/22 03:27:07;;;;;;;11.37;11.07;;;12.60;99.90;;;;;;5098387;28;20447;-80
2023/10/22 03:29:35;;;;;;;11.07;10.77;;;12.60;99.90;;;;;;5095287;28;20566;-80
2023/10/22 03:32:05;;;;;;;10.97;10.67;;;12.60;99.90;;;;;;5096164;28;20450;-80
2023/10/22 03:34:33;;;;;;;11.80;11.27;;;12.70;99.90;;;;;;5095178;27;20477;-80
2023/10/22 03:37:04;;;;;;;11.10;10.80;;;12.70;99.90;;;;;;5094999;28;20470;-80
2023/10/22 03:39:33;;;;;;;10.77;10.57;;;12.60;99.90;;;;;;5088941;28;20446;-79
2023/10/22 03:42:01;;;;;;;11.17;10.70;;;12.60;99.90;;;;;;5093407;28;20461;-79
2023/10/22 03:44:30;;;;;;;11.20;10.90;;;12.60;99.90;;;;;;5089129;28;20519;-79
2023/10/22 03:46:58;;;;;;;12.83;12.33;;;12.50;99.90;;;;;;5093509;28;20969;-79
2023/10/22 03:49:26;;;;;;;11.53;11.23;;;12.50;99.90;;;;;;5093117;28;20455;-79
2023/10/22 03:51:55;;;;;;;11.30;11.00;;;12.50;99.90;;;;;;5091138;28;20454;-80
2023/10/22 03:54:23;;;;;;;11.33;11.03;;;12.60;99.90;;;;;;5088488;28;20485;-79
2023/10/22 03:56:51;;;;;;;11.53;11.10;;;12.50;99.90;;;;;;5090598;28;20490;-79
2023/10/22 03:59:19;;;;;;;10.90;10.60;;;12.50;99.90;;;;;;5091991;28;20449;-78
2023/10/22 04:01:49;;;;;;;11.37;11.07;;;12.50;99.90;;;;;;5089625;28;20946;-80
2023/10/22 04:04:17;;;;;;;11.50;11.20;;;12.50;99.90;;;;;;5094430;28;20474;-80
2023/10/22 04:06:45;;;;;;;11.90;11.50;;;12.40;99.90;;;;;;5096864;28;20441;-80
2023/10/22 04:09:13;;;;;;;11.17;10.77;;;12.50;99.90;;;;;;5095388;28;20458;-80
2023/10/22 04:11:41;;;;;;;11.93;11.30;;;12.40;99.90;;;;;;5094244;28;20449;-80
2023/10/22 04:14:09;;;;;;;11.90;11.50;;;12.40;99.90;;;;;;5093140;28;20496;-79
2023/10/22 04:16:37;;;;;;;12.03;11.40;;;12.40;99.90;;;;;;5094897;28;20470;-79
2023/10/22 04:19:07;;;;;;;11.53;11.23;;;12.40;99.90;;;;;;5089952;28;20526;-78
2023/10/22 04:21:35;;;;;;;11.67;11.37;;;12.40;99.90;;;;;;5095714;28;20455;-79
2023/10/22 04:24:04;;;;;;;12.10;11.80;;;12.40;99.90;;;;;;5092880;28;20476;-79
2023/10/22 04:26:32;;;;;;;11.53;11.33;;;12.40;99.90;;;;;;5096542;28;20446;-80
2023/10/22 04:29:01;;;;;;;11.27;10.97;;;12.40;99.90;;;;;;5096968;28;20473;-79
2023/10/22 04:31:29;;;;;;;12.20;11.90;;;12.40;99.90;;;;;;5096654;28;20442;-79
2023/10/22 04:33:57;;;;;;;11.83;11.43;;;12.40;99.90;;;;;;5092645;28;21368;-80
2023/10/22 04:36:26;;;;;;;11.60;11.20;;;12.40;99.90;;;;;;5088929;27;20458;-79
2023/10/22 04:38:55;;;;;;;11.40;11.00;;;12.40;99.90;;;;;;5091977;28;20507;-79
2023/10/22 04:41:23;;;;;;;11.50;11.10;;;12.30;99.90;;;;;;5096661;28;20561;-79
2023/10/22 04:43:51;;;;;;;11.50;11.00;;;12.30;99.90;;;;;;5091836;28;21065;-79
2023/10/22 04:46:19;;;;;;;12.00;11.43;;;12.30;99.90;;;;;;5089283;28;20460;-79
2023/10/22 04:48:47;;;;;;;11.80;11.40;;;12.30;99.90;;;;;;5091735;28;20583;-79
2023/10/22 04:51:16;;;;;;;11.63;11.20;;;12.30;99.90;;;;;;5094956;28;20466;-80
2023/10/22 04:53:45;;;;;;;11.17;10.63;;;12.20;99.90;;;;;;5095271;28;20485;-80
2023/10/22 04:56:13;;;;;;;11.63;11.10;;;12.20;99.90;;;;;;5092331;28;20533;-79
2023/10/22 04:58:41;;;;;;;10.60;10.30;;;12.20;99.90;;;;;;5090256;28;20477;-79
2023/10/22 05:01:10;;;;;;;10.57;10.27;;;12.30;99.90;;;;;;5092645;28;20453;-79
2023/10/22 05:03:38;;;;;;;10.73;10.33;;;12.20;99.90;;;;;;5091554;28;20469;-79
2023/10/22 05:06:07;;;;;;;10.67;10.30;;;12.20;99.90;;;;;;5090540;28;20464;-79
2023/10/22 05:08:38;;;;;;;10.20;9.90;;;12.20;99.90;;;;;;5093708;28;20519;-79
2023/10/22 05:11:13;;;;;;;11.07;10.63;;;12.20;96.60;;;;;;5088766;28;20448;-79
2023/10/22 05:13:41;;;;;;;11.00;10.60;;;12.20;99.90;;;;;;5093590;28;20950;-80
2023/10/22 05:16:10;;;;;;;10.90;10.40;;;12.20;99.90;;;;;;5092957;28;20507;-80
2023/10/22 05:18:38;;;;;;;10.40;10.20;;;12.20;87.50;;;;;;5094168;28;20469;-79
2023/10/22 05:21:07;;;;;;;11.10;10.53;;;12.20;29.50;;;;;;5093305;28;20446;-80
2023/10/22 05:23:36;;;;;;;10.60;10.40;;;12.30;21.40;;;;;;5095489;28;20439;-79
2023/10/22 05:26:08;;;;;;;10.53;10.27;;;12.20;1.00;;;;;;5091027;28;20460;-80
2023/10/22 05:28:37;;;;;;;9.80;9.40;;;12.10;1.00;;;;;;5094377;28;21297;-80
2023/10/22 05:31:13;;;;;;;10.37;10.17;;;12.10;1.00;;;;;;5093862;28;20481;-80
2023/10/22 05:33:42;;;;;;;9.90;9.60;;;12.20;1.00;;;;;;5096109;28;20476;-80
2023/10/22 05:36:16;;;;;;;9.50;9.30;;;12.10;1.00;;;;;;5106756;28;20449;-80
2023/10/22 05:38:45;;;;;;;9.87;9.57;;;12.10;1.00;;;;;;5091931;28;20464;-80
2023/10/22 05:41:22;;;;;;;9.73;9.33;;;12.10;1.00;;;;;;5096970;28;20457;-81
2023/10/22 05:43:55;;;;;;;9.27;9.00;;;12.10;1.00;;;;;;5094949;28;20522;-80
2023/10/22 05:46:25;;;;;;;9.30;9.00;;;12.10;1.00;;;;;;5094609;28;20472;-80
2023/10/22 05:48:53;;;;;;;10.00;9.53;;;12.00;1.00;;;;;;5104836;28;20518;-81
2023/10/22 05:51:21;;;;;;;9.63;9.20;;;12.00;1.00;;;;;;5097052;28;20652;-81
2023/10/22 05:53:50;;;;;;;9.87;9.57;;;12.10;1.00;;;;;;5096862;28;20478;-80
2023/10/22 05:56:18;;;;;;;9.77;9.47;;;12.00;1.00;;;;;;5091317;28;20592;-80
2023/10/22 05:58:47;;;;;;;10.30;9.73;;;11.90;1.00;;;;;;5094639;28;20489;-80
2023/10/22 06:01:16;;;;;;;9.60;9.30;;;12.00;1.00;;;;;;5092752;28;20497;-80
2023/10/22 06:03:44;;;;;;;10.03;9.60;;;12.00;1.00;;;;;;5096924;28;20534;-80
2023/10/22 06:06:18;;;;;;;10.00;9.80;;;12.00;1.00;;;;;;5090658;28;20457;-80
2023/10/22 06:08:47;;;;;;;10.43;9.90;;;12.00;1.00;;;;;;5092804;28;20469;-81
2023/10/22 06:11:16;;;;;;;9.83;9.40;;;12.00;1.00;;;;;;5095144;28;20450;-81
2023/10/22 06:13:44;;;;;;;11.00;10.27;;;12.00;1.00;;;;;;5087116;28;20843;-80
2023/10/22 06:16:14;;;;;;;10.07;9.67;;;12.00;1.00;;;;;;5091598;28;20462;-81
2023/10/22 06:18:42;;;;;;;9.60;9.40;;;12.00;1.00;;;;;;5090536;28;20470;-80
2023/10/22 06:21:12;;;;;;;9.93;9.50;;;12.10;1.00;;;;;;5092622;28;22514;-80
2023/10/22 06:23:40;;;;;;;9.97;9.70;;;12.00;1.00;;;;;;5093558;28;20456;-79
2023/10/22 06:26:10;;;;;;;9.30;9.10;;;12.00;1.00;;;;;;5093609;28;21193;-82
2023/10/22 06:28:39;;;;;;;10.40;10.00;;;12.00;1.00;;;;;;5095206;28;20546;-80
2023/10/22 06:31:08;;;;;;;11.20;10.80;;;12.00;1.00;;;;;;5094216;28;20542;-81
2023/10/22 06:33:38;;;;;;;11.20;10.70;;;12.00;1.00;;;;;;5098641;28;20454;-81
2023/10/22 06:36:14;;;;;;;11.33;10.80;;;12.00;1.00;;;;;;5096896;28;20461;-80
2023/10/22 06:38:43;;;;;;;11.40;11.00;;;12.00;1.00;;;;;;5091140;28;20492;-82
2023/10/22 06:41:16;;;;;;;11.33;11.03;;;12.00;1.00;;;;;;5096741;28;20887;-81
2023/10/22 06:43:45;;;;;;;11.07;10.70;;;11.90;1.00;;;;;;5096033;28;20986;-80
2023/10/22 06:46:13;;;;;;;9.90;9.60;;;11.90;1.00;;;;;;5092076;28;20458;-80
2023/10/22 06:48:43;;;;;;;9.83;9.33;;;12.00;1.00;;;;;;5092418;28;20445;-79
2023/10/22 06:51:12;;;;;;;9.73;9.50;;;12.10;1.00;;;;;;5092952;28;20523;-79
2023/10/22 06:53:41;;;;;;;9.10;8.90;;;12.10;1.00;;;;;;5096094;28;20525;-78
2023/10/22 06:56:11;;;;;;;10.40;10.00;;;12.10;1.00;;;;;;5095206;28;20843;-79
2023/10/22 06:58:40;;;;;;;10.60;9.97;;;12.10;1.00;;;;;;5093600;28;21084;-80
2023/10/22 07:01:11;;;;;;;9.70;9.30;;;12.10;1.00;;;;;;5095348;28;20469;-79
2023/10/22 07:03:44;;;;;;;9.83;9.50;;;12.20;1.00;;;;;;5097154;28;20471;-78
2023/10/22 07:06:12;;;;;;;9.47;9.17;;;12.30;1.00;;;;;;5092157;28;20462;-79
2023/10/22 07:08:41;;;;;;;9.50;9.30;;;12.30;1.00;;;;;;5096512;28;20457;-79
2023/10/22 07:11:09;;;;;;;9.00;8.80;;;12.40;1.00;;;;;;5095244;28;20454;-80
2023/10/22 07:13:38;;;;;;;9.10;8.80;;;12.40;1.00;;;;;;5092725;28;20450;-79
2023/10/22 07:16:06;;;;;;;10.00;9.60;;;12.50;1.00;;;;;;5091022;28;20451;-79
2023/10/22 07:18:35;;;;;;;9.70;9.40;;;12.50;1.00;;;;;;5096452;28;20462;-79
2023/10/22 07:21:05;;;;;;;9.70;9.00;;;12.60;1.00;;;;;;5089456;27;20465;-79
2023/10/22 07:23:33;;;;;;;9.90;9.60;;;12.70;1.00;;;;;;5094663;28;20450;-79
2023/10/22 07:26:01;;;;;;;8.90;8.70;;;12.80;1.00;;;;;;5093304;27;20452;-80
2023/10/22 07:28:29;;;;;;;8.90;8.70;;;13.00;1.00;;;;;;5094219;28;20476;-80
2023/10/22 07:30:57;;;;;;;9.43;8.93;;;13.10;99.90;;;;;;5094358;28;20455;-79
2023/10/22 07:33:27;;;;;;;10.07;9.70;;;13.30;99.90;;;;;;5091381;28;20507;-79
2023/10/22 07:35:57;;;;;;;10.27;9.47;;;13.60;99.90;;;;;;5096448;28;20942;-79
2023/10/22 07:38:29;;;;;;;10.43;10.03;;;13.80;99.90;;;;;;5095726;28;20484;-80
2023/10/22 07:40:58;;;;;;;9.10;8.90;;;14.00;99.90;;;;;;5094446;28;20453;-79
2023/10/22 07:43:28;;;;;;;9.50;9.20;;;14.20;99.90;;;;;;5092376;28;20443;-80
2023/10/22 07:46:00;;;;;;;9.47;9.17;;;14.40;99.90;;;;;;5092075;28;20458;-79
2023/10/22 07:48:29;;;;;;;9.00;8.73;;;14.50;99.90;;;;;;5091744;28;20454;-79
2023/10/22 07:51:09;;;;;;;9.30;9.00;;;14.70;99.90;;;;;;5101968;28;21010;-78
2023/10/22 07:53:40;;;;;;;9.63;9.32;;;14.90;99.90;;;;;;5092400;28;21096;-79
2023/10/22 07:56:09;;;;;;;9.53;9.13;;;15.00;99.90;;;;;;5094902;28;20256;-79
2023/10/22 07:58:38;;;;;;;10.00;9.60;;;15.20;99.90;;;;;;5086123;28;20556;-80
2023/10/22 08:01:08;;;;;;;9.87;9.00;;;15.40;99.90;;;;;;5089957;28;20877;-81
2023/10/22 08:03:38;;;;;;;9.37;8.87;;;15.60;99.90;;;;;;5094864;28;20485;-80
2023/10/22 08:06:06;;;;;;;8.70;8.40;;;15.80;99.90;;;;;;5096256;27;20458;-81
2023/10/22 08:08:35;;;;;;;9.30;9.00;;;16.10;99.90;;;;;;5095424;28;20460;-80
2023/10/22 08:11:06;;;;;;;9.73;9.43;;;16.40;99.90;;;;;;5094589;28;20530;-79
2023/10/22 08:13:34;;;;;;;9.07;8.70;;;16.60;99.90;;;;;;5092820;27;20449;-79
2023/10/22 08:16:06;;;;;;;9.43;8.57;;;16.70;99.90;;;;;;5091731;28;20457;-81
2023/10/22 08:18:36;;;;;;;8.90;8.70;;;17.00;99.90;;;;;;5096978;28;20481;-81
2023/10/22 08:21:06;;;;;;;8.60;8.30;;;17.60;99.90;;;;;;5095948;28;20451;-82
2023/10/22 08:23:37;;;;;;;8.30;8.03;;;18.10;99.90;;;;;;5092815;28;20202;-83
2023/10/22 08:26:07;;;;;;;8.00;7.80;;;18.40;99.90;;;;;;5093009;28;21202;-83
2023/10/22 08:28:35;;;;;;;8.07;7.80;;;18.50;99.90;;;;;;5094677;28;20540;-82
2023/10/22 08:31:03;;;;;;;7.83;7.63;;;18.90;99.90;;;;;;5095147;27;20541;-83
2023/10/22 08:33:32;;;;;;;7.67;7.47;;;19.40;99.90;;;;;;5093879;28;20457;-82
2023/10/22 08:36:05;;;;;;;7.60;7.20;;;19.90;99.90;;;;;;5092779;27;20449;-83
2023/10/22 08:38:33;;;;;;;7.70;7.30;;;20.10;99.90;;;;;;5092273;28;20471;-82
2023/10/22 08:41:02;;;;;;;7.43;7.13;;;20.40;99.90;;;;;;5091790;28;20460;-83
2023/10/22 08:43:33;;;;;;;7.20;7.00;;;20.90;99.90;;;;;;5092285;28;20461;-82
2023/10/22 08:46:03;;;;;;;6.70;6.50;;;20.50;99.90;;;;;;5095109;28;20442;-84
2023/10/22 08:48:33;;;;;;;7.10;6.70;;;20.80;99.90;;;;;;5092912;28;20453;-81
2023/10/22 08:51:03;;;;;;;6.40;6.10;;;20.80;99.90;;;;;;5095998;27;20840;-83
2023/10/22 08:53:32;;;;;;;6.50;6.33;;;20.50;99.90;;;;;;5093738;27;20453;-83
2023/10/22 08:56:02;;;;;;;6.90;6.70;;;20.20;99.90;;;;;;5093513;28;20457;-81
2023/10/22 08:58:32;;;;;;;7.10;6.80;;;20.00;99.90;;;;;;5092247;28;20518;-81
2023/10/22 09:01:01;;;;;;;7.83;7.23;;;20.00;99.90;;;;;;5091773;28;20612;-81
2023/10/22 09:03:31;;;;;;;6.57;6.27;;;20.40;99.90;;;;;;5090715;28;20465;-82
2023/10/22 09:06:03;;;;;;;6.07;5.87;;;20.20;99.90;;;;;;5094850;28;20455;-81
2023/10/22 09:08:42;;;;;;;6.60;6.40;;;20.70;99.90;;;;;;5094200;28;20991;-82
2023/10/22 09:11:15;;;;;;;5.90;5.60;;;21.50;99.90;;;;;;5093700;28;20979;-81
2023/10/22 09:13:46;;;;;;;6.90;6.60;;;21.80;99.90;;;;;;5092872;28;20532;-81
2023/10/22 09:16:31;;;;;;;7.13;6.53;;;22.90;99.90;;;;;;5095198;28;20970;-82
2023/10/22 09:19:01;;;;;;;6.50;6.10;;;23.30;99.90;;;;;;5089247;28;20446;-82
2023/10/22 09:21:43;;;;;;;8.00;7.60;;;24.40;99.90;;;;;;5089734;28;20459;-84
2023/10/22 09:24:12;;;;;;;7.07;6.67;;;25.40;99.90;;;;;;5090013;28;21318;-83
2023/10/22 09:26:42;;;;;;;6.27;6.07;;;25.20;99.90;;;;;;5089139;28;20457;-83
2023/10/22 09:29:12;;;;;;;5.70;5.60;;;25.60;99.90;;;;;;5092195;28;20461;-83
2023/10/22 09:31:50;;;;;;;5.80;5.40;;;25.70;99.90;;;;;;5088904;28;20463;-83
2023/10/22 09:34:26;;;;;;;6.03;5.63;;;25.30;99.90;;;;;;5096970;28;21596;-84
2023/10/22 09:36:55;;;;;;;5.22;5.03;;;25.20;99.90;;;;;;5092946;28;20435;-83
2023/10/22 09:39:34;;;;;;;5.97;5.67;;;25.00;99.90;;;;;;5091229;28;20652;-81
2023/10/22 09:42:05;;;;;;;6.07;5.80;;;24.60;99.90;;;;;;5090600;28;20450;-83
2023/10/22 09:44:40;;;;;;;5.97;5.77;;;24.50;99.90;;;;;;5091342;28;20527;-81
2023/10/22 09:47:09;;;;;;;5.30;5.20;;;24.40;99.90;;;;;;5090478;28;20458;-81
2023/10/22 09:49:39;;;;;;;6.50;6.10;;;23.20;99.90;;;;;;5094821;28;20506;-81
2023/10/22 09:52:08;;;;;;;5.50;5.30;;;23.00;99.90;;;;;;5090445;28;20574;-80
2023/10/22 09:54:40;;;;;;;6.23;5.80;;;22.70;99.90;;;;;;5092585;28;20469;-85
2023/10/22 09:57:10;;;;;;;6.17;5.87;;;23.00;99.90;;;;;;5088896;28;20540;-82
2023/10/22 09:59:41;;;;;;;6.10;5.90;;;24.00;99.90;;;;;;5093253;28;20465;-83
2023/10/22 10:02:15;;;;;;;5.60;5.30;;;23.90;99.90;;;;;;5093233;28;21248;-81
2023/10/22 10:04:53;;;;;;;5.63;5.23;;;24.30;99.90;;;;;;5090768;28;20534;-83
2023/10/22 10:07:23;;;;;;;6.13;5.63;;;23.50;99.90;;;;;;5091184;28;20529;-83
2023/10/22 10:09:52;;;;;;;5.70;5.40;;;23.70;99.90;;;;;;5089694;28;20539;-83
2023/10/22 10:12:21;;;;;;;5.30;5.00;;;24.70;99.90;;;;;;5091594;28;20499;-83
2023/10/22 10:14:51;;;;;;;5.07;4.87;;;25.40;99.90;;;;;;5091079;28;20481;-82
2023/10/22 10:17:21;;;;;;;5.27;5.03;;;25.20;99.90;;;;;;5090908;28;20545;-83
2023/10/22 10:19:51;;;;;;;5.10;4.90;;;26.60;99.90;;;;;;5091871;28;21159;-82
2023/10/22 10:22:39;;;;;;;5.50;5.30;;;27.80;99.90;;;;;;5089442;28;20446;-82
2023/10/22 10:25:28;;;;;;;5.30;5.00;;;28.40;99.90;;;;;;5093133;27;20497;-81
2023/10/22 10:28:01;;;;;;;5.57;5.37;;;27.80;99.90;;;;;;5092499;28;20503;-82
2023/10/22 10:30:31;;;;;;;5.20;4.90;;;28.90;99.90;;;;;;5096278;28;20512;-82
2023/10/22 10:32:59;;;;;;;4.90;4.60;;;30.00;99.90;;;;;;5094237;28;20460;-82
2023/10/22 10:35:45;;;;;;;4.20;3.90;;;29.40;99.90;;;;;;5093998;27;20476;-82
2023/10/22 10:38:24;;;;;;;4.00;3.80;;;27.00;99.90;;;;;;5093901;28;20457;-82
2023/10/22 10:40:55;;;;;;;3.60;3.50;;;25.40;99.90;;;;;;5094547;28;20544;-81
2023/10/22 10:43:58;;;;;;;6.00;4.00;;;24.50;96.60;;;;;;5092161;28;20465;-82
2023/10/22 10:46:31;;;;;;;4.90;4.50;;;25.20;99.90;;;;;;5091440;28;20491;-81
2023/10/22 10:48:59;;;;;;;5.80;4.20;;;23.90;92.00;;;;;;5093509;28;20458;-82
2023/10/22 10:51:28;;;;;;;4.93;4.60;;;24.80;98.50;;;;;;5094898;28;20440;-82
2023/10/22 10:54:18;;;;;;;4.20;4.00;;;26.20;99.90;;;;;;5093505;28;20475;-82
2023/10/22 10:56:52;;;;;;;3.77;3.57;;;28.10;99.90;;;;;;5091690;28;20454;-82
2023/10/22 10:59:34;;;;;;;4.67;4.20;;;28.40;99.90;;;;;;5090203;28;20453;-82
2023/10/22 11:02:10;;;;;;;4.33;3.93;;;28.40;99.90;;;;;;5093204;28;20615;-83
2023/10/22 11:04:44;;;;;;;4.10;3.70;;;28.20;99.90;;;;;;5093334;28;20506;-82
2023/10/22 11:07:14;;;;;;;4.77;4.57;;;27.20;99.90;;;;;;5093525;28;20467;-82
2023/10/22 11:09:46;;;;;;;4.10;3.90;;;27.20;99.90;;;;;;5092028;28;20890;-82
2023/10/22 11:12:15;;;;;;;4.63;4.40;;;26.10;99.90;;;;;;5092278;28;20487;-82
2023/10/22 11:14:43;;;;;;;4.50;4.30;;;25.10;96.10;;;;;;5090740;28;20567;-82
2023/10/22 11:17:13;;;;;;;4.17;3.97;;;24.10;87.90;;;;;;5099872;28;20457;-82
2023/10/22 11:19:41;;;;;;;4.23;4.00;;;23.20;75.40;;;;;;5092594;28;20464;-82
2023/10/22 11:22:12;;;;;;;4.40;4.20;;;22.50;66.40;;;;;;5094534;28;20481;-81
2023/10/22 11:24:42;;;;;;;4.40;4.20;;;22.20;62.20;;;;;;5093063;28;21229;-82
2023/10/22 11:27:10;;;;;;;4.93;4.60;;;21.90;59.40;;;;;;5087619;28;20793;-82
2023/10/22 11:29:42;;;;;;;4.70;4.40;;;21.80;61.00;;;;;;5094263;28;20541;-82
2023/10/22 11:32:16;;;;;;;4.07;3.90;;;21.80;58.30;;;;;;5095575;28;20455;-82
2023/10/22 11:34:49;;;;;;;4.63;4.33;;;21.80;60.60;;;;;;5092820;28;20550;-81
2023/10/22 11:37:20;;;;;;;4.43;4.23;;;21.80;59.90;;;;;;5095650;28;20457;-82
2023/10/22 11:39:49;;;;;;;4.00;3.80;;;21.80;59.50;;;;;;5096098;28;20880;-81
2023/10/22 11:42:17;;;;;;;4.37;4.23;;;21.70;58.40;;;;;;5088202;28;20564;-81
2023/10/22 11:44:46;;;;;;;4.10;3.80;;;21.50;57.20;;;;;;5086407;28;20474;-82
2023/10/22 11:47:27;;;;;;;4.47;4.17;;;21.20;53.30;;;;;;5087431;28;20479;-82
2023/10/22 11:49:56;;;;;;;4.20;3.90;;;21.20;52.50;;;;;;5090978;28;20464;-82
2023/10/22 11:52:50;;;;;;;4.00;3.70;;;20.90;48.40;;;;;;5094564;28;20450;-83
2023/10/22 11:55:21;;;;;;;4.17;3.97;;;20.80;49.10;;;;;;5093367;28;20497;-83
2023/10/22 11:58:04;;;;;;;4.67;4.27;;;20.90;51.70;;;;;;5094006;28;20978;-83
2023/10/22 12:00:33;;;;;;;4.10;3.80;;;20.90;50.00;;;;;;5096720;28;20438;-83
2023/10/22 12:03:03;;;;;;;5.27;4.77;;;20.60;47.50;;;;;;5096173;28;20455;-83
2023/10/22 12:05:31;;;;;;;4.10;3.80;;;20.50;46.90;;;;;;5092958;28;20479;-82
2023/10/22 12:08:00;;;;;;;3.70;3.60;;;20.70;50.00;;;;;;5094973;28;20442;-82
2023/10/22 12:10:28;;;;;;;4.17;3.90;;;20.70;49.70;;;;;;5095376;28;20457;-82
2023/10/22 12:12:57;;;;;;;3.23;3.03;;;20.70;50.70;;;;;;5094896;28;20497;-83
2023/10/22 12:15:29;;;;;;;3.83;3.57;;;20.50;48.10;;;;;;5094534;28;20469;-84
2023/10/22 12:17:57;;;;;;;3.73;3.53;;;20.70;49.90;;;;;;5092395;28;20468;-82
2023/10/22 12:20:27;;;;;;;4.00;3.80;;;20.70;51.50;;;;;;5093353;28;20489;-84
2023/10/22 12:22:57;;;;;;;4.10;3.87;;;20.90;55.00;;;;;;5090018;28;20839;-84
2023/10/22 12:25:26;;;;;;;3.50;3.30;;;21.00;55.00;;;;;;5094588;28;20630;-85
2023/10/22 12:27:54;;;;;;;3.97;3.70;;;20.90;54.40;;;;;;5092946;28;20446;-84
2023/10/22 12:30:23;;;;;;;3.83;3.60;;;20.70;50.90;;;;;;5092229;28;20462;-84
2023/10/22 12:32:52;;;;;;;4.10;3.70;;;20.60;50.10;;;;;;5090635;28;20446;-83
2023/10/22 12:35:21;;;;;;;3.77;3.57;;;20.60;54.10;;;;;;5090016;27;20558;-84
2023/10/22 12:37:54;;;;;;;3.70;3.50;;;20.80;53.30;;;;;;5089708;28;20537;-83
2023/10/22 12:40:23;;;;;;;3.63;3.43;;;20.80;53.50;;;;;;5093830;28;20470;-83
2023/10/22 12:42:51;;;;;;;5.53;3.90;;;20.70;51.70;;;;;;5092404;28;20503;-83
2023/10/22 12:45:20;;;;;;;3.70;3.50;;;20.60;50.40;;;;;;5089660;28;21354;-82
2023/10/22 12:47:48;;;;;;;3.80;3.60;;;20.20;45.70;;;;;;5094206;28;20462;-81
2023/10/22 12:50:17;;;;;;;10.63;4.73;;;20.20;46.00;;;;;;5094411;28;20456;-82
2023/10/22 12:52:46;;;;;;;3.57;3.40;;;20.20;47.10;;;;;;5093350;28;21094;-81